sensor_id;sensor_type;location;lat;lon;timestamp;pressure;altitude;pressure_sealevel;temperature;humidity
58367;BME280;57745;42.524;12.052;2023-04-02T00:01:25;95602.31;;;15.98;44.17
58367;BME280;57745;42.524;12.052;2023-04-02T00:04:10;95598.72;;;16.07;44.09
58367;BME280;57745;42.524;12.052;2023-04-02T00:06:38;95593.75;;;16.11;43.91
58367;BME280;57745;42.524;12.052;2023-04-02T00:11:39;95590.88;;;15.94;44.32
58367;BME280;57745;42.524;12.052;2023-04-02T00:14:14;95589.09;;;15.91;44.52
58367;BME280;57745;42.524;12.052;2023-04-02T00:16:41;95585.91;;;15.98;44.65
58367;BME280;57745;42.524;12.052;2023-04-02T00:19:12;95584.75;;;16.05;44.45
58367;BME280;57745;42.524;12.052;2023-04-02T00:21:40;95587.31;;;15.88;44.73
58367;BME280;57745;42.524;12.052;2023-04-02T00:24:15;95585.91;;;15.98;44.92
58367;BME280;57745;42.524;12.052;2023-04-02T00:26:47;95588.38;;;15.96;45.23
58367;BME280;57745;42.524;12.052;2023-04-02T00:29:13;95588.19;;;16.00;45.53
58367;BME280;57745;42.524;12.052;2023-04-02T00:31:49;95567.06;;;16.00;45.92
58367;BME280;57745;42.524;12.052;2023-04-02T00:34:21;95574.31;;;16.03;45.97
58367;BME280;57745;42.524;12.052;2023-04-02T00:36:48;95571.03;;;15.99;46.16
58367;BME280;57745;42.524;12.052;2023-04-02T00:39:37;95560.19;;;16.10;45.96
58367;BME280;57745;42.524;12.052;2023-04-02T00:42:05;95550.94;;;16.08;45.62
58367;BME280;57745;42.524;12.052;2023-04-02T00:44:42;95551.69;;;15.82;46.30
58367;BME280;57745;42.524;12.052;2023-04-02T00:49:45;95551.69;;;16.08;46.08
58367;BME280;57745;42.524;12.052;2023-04-02T00:52:13;95545.38;;;16.23;45.84
58367;BME280;57745;42.524;12.052;2023-04-02T00:54:46;95540.38;;;15.95;46.27
58367;BME280;57745;42.524;12.052;2023-04-02T00:57:18;95548.59;;;15.95;46.11
58367;BME280;57745;42.524;12.052;2023-04-02T01:00:00;95537.72;;;16.01;45.98
58367;BME280;57745;42.524;12.052;2023-04-02T01:02:33;95531.59;;;15.86;46.66
58367;BME280;57745;42.524;12.052;2023-04-02T01:05:22;95533.16;;;15.92;46.73
58367;BME280;57745;42.524;12.052;2023-04-02T01:08:06;95542.06;;;15.87;47.08
58367;BME280;57745;42.524;12.052;2023-04-02T01:25:00;95558.44;;;15.82;47.41
58367;BME280;57745;42.524;12.052;2023-04-02T01:28:13;95554.22;;;15.86;47.48
58367;BME280;57745;42.524;12.052;2023-04-02T01:30:35;95559.97;;;15.88;47.21
58367;BME280;57745;42.524;12.052;2023-04-02T01:33:01;95555.47;;;15.85;47.26
58367;BME280;57745;42.524;12.052;2023-04-02T01:35:30;95553.94;;;15.84;47.53
58367;BME280;57745;42.524;12.052;2023-04-02T01:38:00;95566.50;;;15.96;47.29
58367;BME280;57745;42.524;12.052;2023-04-02T01:40:51;95566.09;;;16.03;47.30
58367;BME280;57745;42.524;12.052;2023-04-02T01:45:50;95552.88;;;15.76;47.69
58367;BME280;57745;42.524;12.052;2023-04-02T01:48:23;95553.91;;;15.78;47.81
58367;BME280;57745;42.524;12.052;2023-04-02T01:50:52;95554.78;;;15.90;47.51
58367;BME280;57745;42.524;12.052;2023-04-02T01:53:21;95549.72;;;15.83;47.92
58367;BME280;57745;42.524;12.052;2023-04-02T01:55:54;95544.53;;;15.85;48.02
58367;BME280;57745;42.524;12.052;2023-04-02T01:58:28;95547.59;;;15.93;47.91
58367;BME280;57745;42.524;12.052;2023-04-02T02:01:02;95547.13;;;15.94;48.00
58367;BME280;57745;42.524;12.052;2023-04-02T02:03:30;95544.69;;;16.02;47.44
58367;BME280;57745;42.524;12.052;2023-04-02T02:05:56;95541.09;;;15.90;47.54
58367;BME280;57745;42.524;12.052;2023-04-02T02:10:57;95541.09;;;15.90;48.11
58367;BME280;57745;42.524;12.052;2023-04-02T02:13:23;95543.03;;;16.10;47.64
58367;BME280;57745;42.524;12.052;2023-04-02T02:15:49;95527.53;;;15.75;48.28
58367;BME280;57745;42.524;12.052;2023-04-02T02:18:18;95525.44;;;15.91;47.96
58367;BME280;57745;42.524;12.052;2023-04-02T02:20:47;95519.41;;;16.07;47.75
58367;BME280;57745;42.524;12.052;2023-04-02T02:23:14;95518.78;;;15.97;47.86
58367;BME280;57745;42.524;12.052;2023-04-02T02:25:40;95523.75;;;15.93;47.86
58367;BME280;57745;42.524;12.052;2023-04-02T02:28:09;95523.75;;;15.93;47.46
58367;BME280;57745;42.524;12.052;2023-04-02T02:33:37;95508.59;;;15.72;48.74
58367;BME280;57745;42.524;12.052;2023-04-02T02:36:14;95513.66;;;15.79;48.27
58367;BME280;57745;42.524;12.052;2023-04-02T02:41:40;95510.66;;;15.77;48.31
58367;BME280;57745;42.524;12.052;2023-04-02T02:46:33;95512.78;;;15.67;48.62
58367;BME280;57745;42.524;12.052;2023-04-02T02:49:01;95511.09;;;15.70;48.73
58367;BME280;57745;42.524;12.052;2023-04-02T02:52:05;95494.78;;;15.81;48.39
58367;BME280;57745;42.524;12.052;2023-04-02T02:54:26;95489.19;;;15.96;47.90
58367;BME280;57745;42.524;12.052;2023-04-02T02:56:57;95487.81;;;15.80;48.38
58367;BME280;57745;42.524;12.052;2023-04-02T02:59:25;95495.66;;;15.67;48.63
58367;BME280;57745;42.524;12.052;2023-04-02T03:01:52;95488.78;;;15.77;48.33
58367;BME280;57745;42.524;12.052;2023-04-02T03:04:22;95478.72;;;15.42;49.08
58367;BME280;57745;42.524;12.052;2023-04-02T03:06:50;95483.09;;;15.55;49.36
58367;BME280;57745;42.524;12.052;2023-04-02T03:09:48;95482.78;;;15.73;48.94
58367;BME280;57745;42.524;12.052;2023-04-02T03:15:31;95473.88;;;15.78;48.84
58367;BME280;57745;42.524;12.052;2023-04-02T03:18:09;95483.31;;;15.77;48.96
58367;BME280;57745;42.524;12.052;2023-04-02T03:21:13;95485.13;;;15.60;48.97
58367;BME280;57745;42.524;12.052;2023-04-02T03:23:45;95497.47;;;15.75;48.66
58367;BME280;57745;42.524;12.052;2023-04-02T03:26:20;95494.69;;;15.70;48.88
58367;BME280;57745;42.524;12.052;2023-04-02T03:28:56;95496.81;;;15.86;48.94
58367;BME280;57745;42.524;12.052;2023-04-02T03:31:41;95488.69;;;15.66;49.11
58367;BME280;57745;42.524;12.052;2023-04-02T03:34:36;95481.91;;;15.61;49.30
58367;BME280;57745;42.524;12.052;2023-04-02T03:37:17;95493.31;;;15.60;48.84
58367;BME280;57745;42.524;12.052;2023-04-02T03:39:56;95495.16;;;15.48;49.25
58367;BME280;57745;42.524;12.052;2023-04-02T03:42:25;95487.03;;;15.54;49.40
58367;BME280;57745;42.524;12.052;2023-04-02T03:45:03;95490.38;;;15.63;49.36
58367;BME280;57745;42.524;12.052;2023-04-02T03:47:45;95498.41;;;15.72;48.99
58367;BME280;57745;42.524;12.052;2023-04-02T03:50:15;95504.13;;;15.69;48.86
58367;BME280;57745;42.524;12.052;2023-04-02T03:52:42;95507.06;;;15.65;49.14
58367;BME280;57745;42.524;12.052;2023-04-02T03:55:15;95496.44;;;15.73;48.74
58367;BME280;57745;42.524;12.052;2023-04-02T04:03:15;95502.19;;;15.75;48.74
58367;BME280;57745;42.524;12.052;2023-04-02T04:05:49;95500.56;;;15.63;49.19
58367;BME280;57745;42.524;12.052;2023-04-02T04:08:22;95501.75;;;15.56;48.92
58367;BME280;57745;42.524;12.052;2023-04-02T04:10:52;95497.63;;;15.46;49.61
58367;BME280;57745;42.524;12.052;2023-04-02T04:13:45;95503.44;;;15.54;49.66
58367;BME280;57745;42.524;12.052;2023-04-02T04:16:15;95502.63;;;15.68;48.96
58367;BME280;57745;42.524;12.052;2023-04-02T04:18:51;95504.72;;;15.78;49.03
58367;BME280;57745;42.524;12.052;2023-04-02T04:21:26;95508.88;;;15.74;49.31
58367;BME280;57745;42.524;12.052;2023-04-02T04:24:00;95514.06;;;15.72;48.86
58367;BME280;57745;42.524;12.052;2023-04-02T04:26:52;95516.28;;;15.48;49.79
58367;BME280;57745;42.524;12.052;2023-04-02T04:32:59;95521.34;;;15.55;49.46
58367;BME280;57745;42.524;12.052;2023-04-02T04:37:44;95524.59;;;15.79;49.51
58367;BME280;57745;42.524;12.052;2023-04-02T04:40:21;95531.44;;;15.69;49.88
58367;BME280;57745;42.524;12.052;2023-04-02T04:42:52;95537.88;;;15.66;49.68
58367;BME280;57745;42.524;12.052;2023-04-02T04:48:03;95545.53;;;15.62;49.84
58367;BME280;57745;42.524;12.052;2023-04-02T04:50:50;95543.72;;;15.79;49.83
58367;BME280;57745;42.524;12.052;2023-04-02T04:53:25;95545.63;;;15.73;50.39
58367;BME280;57745;42.524;12.052;2023-04-02T04:55:53;95548.09;;;15.51;50.85
58367;BME280;57745;42.524;12.052;2023-04-02T05:00:58;95541.09;;;15.64;50.92
58367;BME280;57745;42.524;12.052;2023-04-02T05:03:50;95546.13;;;15.71;50.90
58367;BME280;57745;42.524;12.052;2023-04-02T05:08:59;95544.38;;;15.68;51.04
58367;BME280;57745;42.524;12.052;2023-04-02T05:11:33;95540.44;;;15.75;50.77
58367;BME280;57745;42.524;12.052;2023-04-02T05:14:05;95538.78;;;15.83;50.64
58367;BME280;57745;42.524;12.052;2023-04-02T05:16:40;95537.94;;;15.51;51.39
58367;BME280;57745;42.524;12.052;2023-04-02T05:19:46;95530.47;;;15.72;51.08
58367;BME280;57745;42.524;12.052;2023-04-02T05:24:52;95535.47;;;15.73;51.33
58367;BME280;57745;42.524;12.052;2023-04-02T05:32:53;95554.97;;;15.87;51.28
58367;BME280;57745;42.524;12.052;2023-04-02T05:35:25;95549.88;;;15.74;51.47
58367;BME280;57745;42.524;12.052;2023-04-02T05:37:52;95556.88;;;15.55;51.70
58367;BME280;57745;42.524;12.052;2023-04-02T05:40:26;95549.88;;;15.33;52.54
58367;BME280;57745;42.524;12.052;2023-04-02T05:42:54;95563.94;;;15.46;51.81
58367;BME280;57745;42.524;12.052;2023-04-02T05:45:35;95564.44;;;15.45;52.01
58367;BME280;57745;42.524;12.052;2023-04-02T05:48:26;95570.41;;;15.64;51.59
58367;BME280;57745;42.524;12.052;2023-04-02T05:50:55;95577.34;;;15.85;51.49
58367;BME280;57745;42.524;12.052;2023-04-02T05:53:48;95580.34;;;15.87;51.23
58367;BME280;57745;42.524;12.052;2023-04-02T05:58:47;95582.50;;;15.57;52.21
58367;BME280;57745;42.524;12.052;2023-04-02T06:01:22;95580.66;;;15.69;52.07
58367;BME280;57745;42.524;12.052;2023-04-02T06:09:06;95572.97;;;15.73;52.36
58367;BME280;57745;42.524;12.052;2023-04-02T06:11:43;95576.00;;;15.55;52.92
58367;BME280;57745;42.524;12.052;2023-04-02T06:14:14;95574.31;;;15.83;52.28
58367;BME280;57745;42.524;12.052;2023-04-02T06:16:43;95573.25;;;15.75;52.43
58367;BME280;57745;42.524;12.052;2023-04-02T06:19:30;95577.19;;;15.94;52.52
58367;BME280;57745;42.524;12.052;2023-04-02T06:22:06;95578.78;;;15.80;52.59
58367;BME280;57745;42.524;12.052;2023-04-02T06:24:36;95575.06;;;15.84;52.30
58367;BME280;57745;42.524;12.052;2023-04-02T06:27:04;95575.72;;;15.99;52.01
58367;BME280;57745;42.524;12.052;2023-04-02T06:29:36;95584.13;;;15.95;52.15
58367;BME280;57745;42.524;12.052;2023-04-02T06:32:08;95572.22;;;15.93;52.20
58367;BME280;57745;42.524;12.052;2023-04-02T06:34:36;95572.84;;;16.08;51.39
58367;BME280;57745;42.524;12.052;2023-04-02T06:39:35;95578.47;;;16.25;51.01
58367;BME280;57745;42.524;12.052;2023-04-02T06:42:20;95577.94;;;15.95;51.75
58367;BME280;57745;42.524;12.052;2023-04-02T06:44:47;95574.81;;;16.33;50.34
58367;BME280;57745;42.524;12.052;2023-04-02T06:47:42;95573.81;;;16.05;50.79
58367;BME280;57745;42.524;12.052;2023-04-02T06:50:13;95571.28;;;16.01;50.90
58367;BME280;57745;42.524;12.052;2023-04-02T06:52:44;95568.00;;;16.23;50.47
58367;BME280;57745;42.524;12.052;2023-04-02T06:57:52;95568.97;;;16.20;50.55
58367;BME280;57745;42.524;12.052;2023-04-02T07:02:57;95568.28;;;16.25;50.51
58367;BME280;57745;42.524;12.052;2023-04-02T07:05:23;95563.41;;;16.09;51.09
58367;BME280;57745;42.524;12.052;2023-04-02T07:07:48;95546.97;;;16.35;50.08
58367;BME280;57745;42.524;12.052;2023-04-02T07:10:14;95551.38;;;16.27;50.40
58367;BME280;57745;42.524;12.052;2023-04-02T07:12:40;95556.44;;;16.08;50.68
58367;BME280;57745;42.524;12.052;2023-04-02T07:15:06;95551.38;;;16.27;50.27
58367;BME280;57745;42.524;12.052;2023-04-02T07:17:31;95544.59;;;16.16;50.44
58367;BME280;57745;42.524;12.052;2023-04-02T07:19:56;95558.91;;;16.06;50.56
58367;BME280;57745;42.524;12.052;2023-04-02T07:22:22;95560.38;;;16.33;49.80
58367;BME280;57745;42.524;12.052;2023-04-02T07:24:49;95552.91;;;16.33;49.66
58367;BME280;57745;42.524;12.052;2023-04-02T07:27:15;95552.13;;;16.27;49.91
58367;BME280;57745;42.524;12.052;2023-04-02T07:29:40;95560.34;;;16.27;50.00
58367;BME280;57745;42.524;12.052;2023-04-02T07:32:09;95557.00;;;16.43;49.76
58367;BME280;57745;42.524;12.052;2023-04-02T07:34:35;95565.22;;;16.43;49.92
58367;BME280;57745;42.524;12.052;2023-04-02T07:37:01;95572.63;;;16.37;49.90
58367;BME280;57745;42.524;12.052;2023-04-02T07:39:27;95575.03;;;16.30;49.47
58367;BME280;57745;42.524;12.052;2023-04-02T07:41:57;95573.56;;;16.34;48.82
58367;BME280;57745;42.524;12.052;2023-04-02T07:44:22;95569.03;;;16.26;49.09
58367;BME280;57745;42.524;12.052;2023-04-02T07:46:48;95575.31;;;16.32;49.18
58367;BME280;57745;42.524;12.052;2023-04-02T07:49:13;95576.41;;;16.45;48.54
58367;BME280;57745;42.524;12.052;2023-04-02T07:51:39;95580.44;;;16.50;48.66
58367;BME280;57745;42.524;12.052;2023-04-02T07:54:06;95574.06;;;16.33;48.73
58367;BME280;57745;42.524;12.052;2023-04-02T07:56:34;95590.91;;;16.51;48.09
58367;BME280;57745;42.524;12.052;2023-04-02T07:59:01;95601.38;;;16.53;48.33
58367;BME280;57745;42.524;12.052;2023-04-02T08:01:27;95602.59;;;16.52;48.17
58367;BME280;57745;42.524;12.052;2023-04-02T08:03:55;95605.44;;;16.63;47.97
58367;BME280;57745;42.524;12.052;2023-04-02T08:06:22;95608.97;;;16.69;47.90
58367;BME280;57745;42.524;12.052;2023-04-02T08:08:47;95610.25;;;16.74;47.98
58367;BME280;57745;42.524;12.052;2023-04-02T08:11:13;95608.53;;;16.76;47.77
58367;BME280;57745;42.524;12.052;2023-04-02T08:13:39;95609.03;;;16.75;48.05
58367;BME280;57745;42.524;12.052;2023-04-02T08:16:04;95610.75;;;16.72;47.59
58367;BME280;57745;42.524;12.052;2023-04-02T08:18:31;95613.41;;;16.93;47.29
58367;BME280;57745;42.524;12.052;2023-04-02T08:20:57;95606.50;;;16.71;47.64
58367;BME280;57745;42.524;12.052;2023-04-02T08:23:23;95615.41;;;16.98;46.97
58367;BME280;57745;42.524;12.052;2023-04-02T08:25:49;95607.25;;;16.72;47.44
58367;BME280;57745;42.524;12.052;2023-04-02T08:28:15;95609.84;;;16.86;47.52
58367;BME280;57745;42.524;12.052;2023-04-02T08:30:41;95614.72;;;17.03;46.65
58367;BME280;57745;42.524;12.052;2023-04-02T08:33:06;95606.75;;;17.05;47.16
58367;BME280;57745;42.524;12.052;2023-04-02T08:35:32;95618.69;;;17.02;46.97
58367;BME280;57745;42.524;12.052;2023-04-02T08:37:58;95609.66;;;16.96;46.79
58367;BME280;57745;42.524;12.052;2023-04-02T08:43:03;95619.66;;;16.99;46.83
58367;BME280;57745;42.524;12.052;2023-04-02T08:45:35;95615.31;;;17.18;46.37
58367;BME280;57745;42.524;12.052;2023-04-02T08:48:03;95610.47;;;17.02;46.58
58367;BME280;57745;42.524;12.052;2023-04-02T08:50:35;95610.84;;;17.26;46.10
58367;BME280;57745;42.524;12.052;2023-04-02T08:53:04;95606.69;;;16.94;46.34
58367;BME280;57745;42.524;12.052;2023-04-02T08:56:25;95609.72;;;17.07;45.13
58367;BME280;57745;42.524;12.052;2023-04-02T08:59:02;95610.47;;;17.07;45.66
58367;BME280;57745;42.524;12.052;2023-04-02T09:04:17;95617.78;;;17.16;45.68
58367;BME280;57745;42.524;12.052;2023-04-02T09:06:45;95613.63;;;17.32;45.52
58367;BME280;57745;42.524;12.052;2023-04-02T09:09:13;95609.41;;;17.31;45.19
58367;BME280;57745;42.524;12.052;2023-04-02T09:14:16;95600.38;;;17.24;45.59
58367;BME280;57745;42.524;12.052;2023-04-02T09:16:45;95598.13;;;17.23;46.23
58367;BME280;57745;42.524;12.052;2023-04-02T09:19:20;95603.06;;;17.13;45.07
58367;BME280;57745;42.524;12.052;2023-04-02T09:24:26;95609.06;;;17.17;45.75
58367;BME280;57745;42.524;12.052;2023-04-02T09:26:51;95618.59;;;17.28;44.77
58367;BME280;57745;42.524;12.052;2023-04-02T09:29:39;95619.34;;;17.28;44.75
58367;BME280;57745;42.524;12.052;2023-04-02T09:32:17;95622.84;;;17.29;45.80
58367;BME280;57745;42.524;12.052;2023-04-02T09:34:46;95628.53;;;17.25;45.17
58367;BME280;57745;42.524;12.052;2023-04-02T09:37:20;95627.56;;;17.28;44.84
58367;BME280;57745;42.524;12.052;2023-04-02T09:39:50;95623.25;;;17.16;45.29
58367;BME280;57745;42.524;12.052;2023-04-02T09:42:33;95626.28;;;17.23;44.96
58367;BME280;57745;42.524;12.052;2023-04-02T09:45:12;95624.09;;;17.33;45.12
58367;BME280;57745;42.524;12.052;2023-04-02T09:47:39;95630.03;;;17.26;45.23
58367;BME280;57745;42.524;12.052;2023-04-02T09:50:32;95628.88;;;17.38;44.85
58367;BME280;57745;42.524;12.052;2023-04-02T09:52:58;95622.50;;;17.15;45.33
58367;BME280;57745;42.524;12.052;2023-04-02T09:55:41;95635.59;;;17.37;45.46
58367;BME280;57745;42.524;12.052;2023-04-02T09:58:14;95637.03;;;17.33;44.67
58367;BME280;57745;42.524;12.052;2023-04-02T10:00:48;95633.41;;;17.10;44.15
58367;BME280;57745;42.524;12.052;2023-04-02T10:03:28;95634.50;;;17.23;44.54
58367;BME280;57745;42.524;12.052;2023-04-02T10:06:22;95636.47;;;17.17;44.51
58367;BME280;57745;42.524;12.052;2023-04-02T10:08:47;95637.72;;;17.22;44.24
58367;BME280;57745;42.524;12.052;2023-04-02T10:11:17;95639.28;;;17.34;44.21
58367;BME280;57745;42.524;12.052;2023-04-02T10:14:03;95628.66;;;17.05;44.50
58367;BME280;57745;42.524;12.052;2023-04-02T10:16:37;95634.50;;;17.23;45.01
58367;BME280;57745;42.524;12.052;2023-04-02T10:19:33;95636.69;;;17.14;44.99
58367;BME280;57745;42.524;12.052;2023-04-02T10:22:04;95642.38;;;17.10;44.69
58367;BME280;57745;42.524;12.052;2023-04-02T10:24:30;95637.47;;;17.20;45.02
58367;BME280;57745;42.524;12.052;2023-04-02T10:32:25;95639.00;;;17.27;45.06
58367;BME280;57745;42.524;12.052;2023-04-02T10:38:28;95632.19;;;17.11;44.49
58367;BME280;57745;42.524;12.052;2023-04-02T10:40:47;95633.88;;;17.45;44.33
58367;BME280;57745;42.524;12.052;2023-04-02T10:43:42;95635.91;;;17.50;44.29
58367;BME280;57745;42.524;12.052;2023-04-02T10:46:21;95635.16;;;17.50;44.96
58367;BME280;57745;42.524;12.052;2023-04-02T10:56:37;95636.59;;;17.40;44.53
58367;BME280;57745;42.524;12.052;2023-04-02T11:01:40;95631.34;;;17.36;44.41
58367;BME280;57745;42.524;12.052;2023-04-02T11:04:35;95623.38;;;17.38;44.17
58367;BME280;57745;42.524;12.052;2023-04-02T11:07:01;95620.63;;;17.38;44.14
58367;BME280;57745;42.524;12.052;2023-04-02T11:09:31;95626.13;;;17.44;43.89
58367;BME280;57745;42.524;12.052;2023-04-02T11:11:58;95618.84;;;17.30;44.21
58367;BME280;57745;42.524;12.052;2023-04-02T11:14:28;95618.44;;;17.42;43.68
58367;BME280;57745;42.524;12.052;2023-04-02T11:16:56;95620.91;;;17.40;43.45
58367;BME280;57745;42.524;12.052;2023-04-02T11:19:28;95614.41;;;17.38;42.91
58367;BME280;57745;42.524;12.052;2023-04-02T11:21:55;95618.72;;;17.50;42.54
58367;BME280;57745;42.524;12.052;2023-04-02T11:29:37;95613.00;;;17.59;43.29
58367;BME280;57745;42.524;12.052;2023-04-02T11:32:25;95609.03;;;17.54;41.92
58367;BME280;57745;42.524;12.052;2023-04-02T11:37:38;95607.84;;;17.72;42.57
58367;BME280;57745;42.524;12.052;2023-04-02T11:42:41;95602.09;;;17.65;42.34
58367;BME280;57745;42.524;12.052;2023-04-02T11:50:45;95600.22;;;17.45;41.98
58367;BME280;57745;42.524;12.052;2023-04-02T11:58:53;95587.28;;;17.45;40.68
58367;BME280;57745;42.524;12.052;2023-04-02T12:01:32;95580.56;;;17.46;41.13
58367;BME280;57745;42.524;12.052;2023-04-02T12:04:15;95584.22;;;17.27;41.17
58367;BME280;57745;42.524;12.052;2023-04-02T12:09:58;95576.69;;;17.16;41.70
58367;BME280;57745;42.524;12.052;2023-04-02T12:12:32;95569.69;;;17.69;41.65
58367;BME280;57745;42.524;12.052;2023-04-02T12:15:42;95572.06;;;17.44;41.98
58367;BME280;57745;42.524;12.052;2023-04-02T12:18:28;95571.09;;;17.42;41.81
58367;BME280;57745;42.524;12.052;2023-04-02T12:20:55;95569.53;;;17.35;41.26
58367;BME280;57745;42.524;12.052;2023-04-02T12:23:25;95573.97;;;17.75;41.23
58367;BME280;57745;42.524;12.052;2023-04-02T12:26:04;95564.16;;;17.57;40.99
58367;BME280;57745;42.524;12.052;2023-04-02T12:28:34;95559.47;;;17.69;40.86
58367;BME280;57745;42.524;12.052;2023-04-02T12:33:35;95563.25;;;17.83;40.86
58367;BME280;57745;42.524;12.052;2023-04-02T12:36:04;95548.50;;;17.64;41.31
58367;BME280;57745;42.524;12.052;2023-04-02T12:38:34;95549.19;;;17.58;41.41
58367;BME280;57745;42.524;12.052;2023-04-02T12:41:14;95550.22;;;17.55;41.64
58367;BME280;57745;42.524;12.052;2023-04-02T12:43:42;95544.47;;;17.53;41.50
58367;BME280;57745;42.524;12.052;2023-04-02T12:46:08;95537.94;;;17.40;41.50
58367;BME280;57745;42.524;12.052;2023-04-02T12:48:34;95533.75;;;17.61;41.59
58367;BME280;57745;42.524;12.052;2023-04-02T12:51:01;95532.75;;;17.58;40.57
58367;BME280;57745;42.524;12.052;2023-04-02T12:53:35;95522.34;;;17.74;40.69
58367;BME280;57745;42.524;12.052;2023-04-02T12:56:02;95532.09;;;17.75;40.23
58367;BME280;57745;42.524;12.052;2023-04-02T13:01:18;95514.63;;;17.72;41.08
58367;BME280;57745;42.524;12.052;2023-04-02T13:06:25;95518.28;;;17.58;39.79
58367;BME280;57745;42.524;12.052;2023-04-02T13:08:52;95515.81;;;17.60;39.25
58367;BME280;57745;42.524;12.052;2023-04-02T13:11:18;95519.31;;;17.60;39.34
58367;BME280;57745;42.524;12.052;2023-04-02T13:13:45;95504.59;;;17.58;39.49
58367;BME280;57745;42.524;12.052;2023-04-02T13:18:46;95502.41;;;17.68;39.04
58367;BME280;57745;42.524;12.052;2023-04-02T13:23:44;95489.41;;;17.63;39.68
58367;BME280;57745;42.524;12.052;2023-04-02T13:28:36;95500.41;;;17.74;39.13
58367;BME280;57745;42.524;12.052;2023-04-02T13:31:01;95497.09;;;17.58;39.62
58367;BME280;57745;42.524;12.052;2023-04-02T13:33:27;95496.94;;;17.73;39.55
58367;BME280;57745;42.524;12.052;2023-04-02T13:35:52;95501.41;;;17.82;39.90
58367;BME280;57745;42.524;12.052;2023-04-02T13:38:18;95490.22;;;17.80;39.48
58367;BME280;57745;42.524;12.052;2023-04-02T13:40:43;95501.34;;;17.59;38.26
58367;BME280;57745;42.524;12.052;2023-04-02T13:43:16;95499.31;;;17.43;39.65
58367;BME280;57745;42.524;12.052;2023-04-02T13:45:44;95488.44;;;17.66;38.73
58367;BME280;57745;42.524;12.052;2023-04-02T13:48:13;95491.88;;;17.60;39.02
58367;BME280;57745;42.524;12.052;2023-04-02T13:50:40;95488.94;;;17.70;39.09
58367;BME280;57745;42.524;12.052;2023-04-02T13:53:07;95489.69;;;17.70;38.68
58367;BME280;57745;42.524;12.052;2023-04-02T13:55:38;95486.44;;;17.72;39.53
58367;BME280;57745;42.524;12.052;2023-04-02T13:58:05;95492.44;;;17.76;39.34
58367;BME280;57745;42.524;12.052;2023-04-02T14:00:31;95477.50;;;17.77;39.43
58367;BME280;57745;42.524;12.052;2023-04-02T14:03:05;95472.97;;;17.68;38.16
58367;BME280;57745;42.524;12.052;2023-04-02T14:06:07;95482.69;;;17.64;38.49
58367;BME280;57745;42.524;12.052;2023-04-02T14:19:57;95462.94;;;17.48;38.44
58367;BME280;57745;42.524;12.052;2023-04-02T14:25:30;95467.22;;;17.55;39.37
58367;BME280;57745;42.524;12.052;2023-04-02T14:28:12;95460.53;;;17.67;39.06
58367;BME280;57745;42.524;12.052;2023-04-02T14:36:50;95457.53;;;17.71;38.72
58367;BME280;57745;42.524;12.052;2023-04-02T14:39:41;95458.78;;;17.64;38.71
58367;BME280;57745;42.524;12.052;2023-04-02T14:44:45;95452.03;;;17.71;39.27
58367;BME280;57745;42.524;12.052;2023-04-02T14:47:18;95453.53;;;17.72;39.20
58367;BME280;57745;42.524;12.052;2023-04-02T14:49:50;95456.78;;;17.76;39.09
58367;BME280;57745;42.524;12.052;2023-04-02T14:52:21;95453.81;;;17.90;39.33
58367;BME280;57745;42.524;12.052;2023-04-02T14:54:59;95451.06;;;17.74;38.88
58367;BME280;57745;42.524;12.052;2023-04-02T14:57:32;95455.56;;;17.77;39.33
58367;BME280;57745;42.524;12.052;2023-04-02T15:00:07;95458.81;;;17.92;39.88
58367;BME280;57745;42.524;12.052;2023-04-02T15:03:02;95464.03;;;17.79;39.53
58367;BME280;57745;42.524;12.052;2023-04-02T15:05:41;95460.53;;;17.78;40.34
58367;BME280;57745;42.524;12.052;2023-04-02T15:08:27;95456.78;;;17.81;40.17
58367;BME280;57745;42.524;12.052;2023-04-02T15:11:02;95463.53;;;17.86;40.47
58367;BME280;57745;42.524;12.052;2023-04-02T15:16:15;95467.03;;;17.92;40.95
58367;BME280;57745;42.524;12.052;2023-04-02T15:18:43;95479.72;;;17.84;40.38
58367;BME280;57745;42.524;12.052;2023-04-02T15:31:45;95496.19;;;17.67;41.08
58367;BME280;57745;42.524;12.052;2023-04-02T15:34:33;95495.66;;;17.63;41.65
58367;BME280;57745;42.524;12.052;2023-04-02T15:42:07;95498.41;;;17.69;41.59
58367;BME280;57745;42.524;12.052;2023-04-02T15:44:42;95500.66;;;17.81;41.66
58367;BME280;57745;42.524;12.052;2023-04-02T15:50:28;95522.31;;;17.63;41.75
58367;BME280;57745;42.524;12.052;2023-04-02T15:52:49;95507.38;;;17.64;41.83
58367;BME280;57745;42.524;12.052;2023-04-02T15:55:40;95506.63;;;17.69;42.10
58367;BME280;57745;42.524;12.052;2023-04-02T15:58:42;95497.66;;;17.68;42.05
58367;BME280;57745;42.524;12.052;2023-04-02T16:04:18;95506.88;;;17.71;41.89
58367;BME280;57745;42.524;12.052;2023-04-02T16:07:00;95515.63;;;17.75;42.14
58367;BME280;57745;42.524;12.052;2023-04-02T16:10:02;95519.38;;;17.77;42.06
58367;BME280;57745;42.524;12.052;2023-04-02T16:12:32;95518.81;;;17.62;41.60
58367;BME280;57745;42.524;12.052;2023-04-02T16:15:16;95519.75;;;17.48;41.76
58367;BME280;57745;42.524;12.052;2023-04-02T16:17:45;95520.34;;;17.69;41.71
58367;BME280;57745;42.524;12.052;2023-04-02T16:20:52;95532.00;;;17.58;41.55
58367;BME280;57745;42.524;12.052;2023-04-02T16:23:13;95538.94;;;17.48;41.91
58367;BME280;57745;42.524;12.052;2023-04-02T16:34:37;95526.22;;;17.45;42.15
58367;BME280;57745;42.524;12.052;2023-04-02T16:37:19;95535.22;;;17.56;41.94
58367;BME280;57745;42.524;12.052;2023-04-02T16:45:47;95536.50;;;17.61;41.04
58367;BME280;57745;42.524;12.052;2023-04-02T16:48:26;95539.25;;;17.55;41.83
58367;BME280;57745;42.524;12.052;2023-04-02T17:09:51;95537.88;;;17.29;41.11
58367;BME280;57745;42.524;12.052;2023-04-02T17:12:26;95541.91;;;17.44;40.98